createdAt,value
2019-03-15T00:00:53.570Z,91.14
2019-03-15T00:01:53.512Z,92.94
2019-03-15T00:02:53.457Z,93.61
2019-03-15T00:03:53.407Z,91.61
2019-03-15T00:04:53.374Z,91.99
2019-03-15T00:05:53.317Z,92.09
2019-03-15T00:06:53.229Z,92.28
2019-03-15T00:07:53.171Z,93.32
2019-03-15T00:08:53.127Z,93.32
2019-03-15T00:09:53.088Z,92.85
2019-03-15T00:10:53.000Z,93.70
2019-03-15T00:11:52.942Z,93.99
2019-03-15T00:12:52.885Z,93.32
2019-03-15T00:13:52.831Z,94.27
2019-03-15T00:14:52.797Z,93.32
2019-03-15T00:15:52.720Z,93.99
2019-03-15T00:16:52.657Z,93.89
2019-03-15T00:17:52.634Z,93.08
2019-03-15T00:18:52.545Z,92.52
2019-03-15T00:19:52.494Z,92.71
2019-03-15T00:20:52.429Z,92.14
2019-03-15T00:21:52.372Z,92.09
2019-03-15T00:22:52.358Z,91.28
2019-03-15T00:23:52.260Z,92.99
2019-03-15T00:24:52.201Z,91.38
2019-03-15T00:25:55.138Z,90.91
2019-03-15T00:26:52.089Z,91.00
2019-03-15T00:27:52.074Z,92.52
2019-03-15T00:28:51.974Z,92.14
2019-03-15T00:29:51.923Z,91.95
2019-03-15T00:30:51.859Z,92.33
2019-03-15T00:31:51.835Z,92.80
2019-03-15T00:32:51.746Z,92.33
2019-03-15T00:33:51.692Z,92.42
2019-03-15T00:34:51.633Z,92.99
2019-03-15T00:35:51.583Z,91.85
2019-03-15T00:36:51.551Z,92.42
2019-03-15T00:37:51.492Z,91.57
2019-03-15T00:38:51.404Z,92.99
2019-03-15T00:39:51.347Z,90.81
2019-03-15T00:40:51.296Z,91.47
2019-03-15T00:41:51.265Z,90.91
2019-03-15T00:42:51.172Z,91.57
2019-03-15T00:43:51.156Z,91.38
2019-03-15T00:44:51.093Z,91.85
2019-03-15T00:45:51.004Z,91.42
2019-03-15T00:46:50.950Z,91.33
2019-03-15T00:47:50.895Z,90.15
2019-03-15T00:48:50.863Z,89.67
2019-03-15T00:49:50.774Z,90.67
2019-03-15T00:50:50.751Z,90.05
2019-03-15T00:51:50.662Z,89.81
2019-03-15T00:52:50.601Z,90.57
2019-03-15T00:53:53.947Z,89.62
2019-03-15T00:54:50.501Z,89.25
2019-03-15T00:55:50.431Z,88.58
2019-03-15T00:56:50.374Z,88.10
2019-03-15T00:57:50.347Z,88.01
2019-03-15T00:58:50.259Z,88.20
2019-03-15T00:59:50.234Z,87.73
2019-03-15T01:00:50.149Z,88.20
2019-03-15T01:01:50.087Z,88.01
2019-03-15T01:02:50.139Z,87.82
2019-03-15T01:03:49.979Z,88.01
2019-03-15T01:04:49.951Z,88.68
2019-03-15T01:05:49.863Z,87.73
2019-03-15T01:06:49.802Z,87.35
2019-03-15T01:07:49.790Z,87.16
2019-03-15T01:08:49.690Z,86.59
2019-03-15T01:09:49.631Z,86.02
2019-03-15T01:10:49.573Z,85.22
2019-03-15T01:11:49.515Z,84.55
2019-03-15T01:12:49.490Z,84.08
2019-03-15T01:13:49.400Z,83.70
2019-03-15T01:14:49.344Z,82.66
2019-03-15T01:15:49.314Z,82.37
2019-03-15T01:16:49.236Z,82.56
2019-03-15T01:17:49.214Z,82.66
2019-03-15T01:18:49.125Z,82.18
2019-03-15T01:19:49.060Z,81.52
2019-03-15T01:20:49.003Z,81.99
2019-03-15T01:21:48.947Z,81.14
2019-03-15T01:22:48.920Z,81.71
2019-03-15T01:23:48.833Z,81.14
2019-03-15T01:24:48.775Z,81.52
2019-03-15T01:25:48.720Z,81.05
2019-03-15T01:26:48.665Z,81.52
2019-03-15T01:27:48.643Z,81.14
2019-03-15T01:28:48.544Z,80.86
2019-03-15T01:29:48.489Z,80.52
2019-03-15T01:30:48.437Z,80.38
2019-03-15T01:31:48.376Z,79.72
2019-03-15T01:32:48.340Z,80.38
2019-03-15T01:33:48.259Z,80.57
2019-03-15T01:34:48.209Z,80.57
2019-03-15T01:35:48.238Z,80.38
2019-03-15T01:36:48.091Z,80.67
2019-03-15T01:37:48.063Z,80.00
2019-03-15T01:38:47.977Z,79.66
2019-03-15T01:39:47.917Z,79.53
2019-03-15T01:40:48.978Z,79.15
2019-03-15T01:41:47.802Z,79.57
2019-03-15T01:42:48.043Z,79.47
2019-03-15T01:43:47.689Z,79.15
2019-03-15T01:44:47.632Z,78.39
2019-03-15T01:45:47.626Z,78.49
2019-03-15T01:46:47.518Z,79.15
2019-03-15T01:47:47.459Z,78.81
2019-03-15T01:48:47.409Z,78.53
2019-03-15T01:49:47.346Z,78.91
2019-03-15T01:50:47.328Z,79.53
2019-03-15T01:51:47.230Z,79.57
2019-03-15T01:52:47.230Z,79.57
2019-03-15T01:53:47.122Z,79.47
2019-03-15T01:54:47.062Z,79.53
2019-03-15T01:55:47.015Z,78.72
2019-03-15T01:56:46.951Z,78.62
2019-03-15T01:57:47.007Z,78.20
2019-03-15T01:58:46.833Z,77.77
2019-03-15T01:59:46.776Z,78.62
2019-03-15T02:00:46.719Z,77.58
2019-03-15T02:01:46.660Z,77.77
2019-03-15T02:02:46.640Z,77.11
2019-03-15T02:03:46.543Z,76.25
2019-03-15T02:04:46.496Z,76.82
2019-03-15T02:05:46.431Z,75.78
2019-03-15T02:06:46.407Z,76.15
2019-03-15T02:07:46.315Z,76.82
2019-03-15T02:08:46.265Z,75.78
2019-03-15T02:09:46.258Z,76.25
2019-03-15T02:10:46.144Z,75.78
2019-03-15T02:11:46.088Z,75.87
2019-03-15T02:12:46.032Z,75.96
2019-03-15T02:13:45.976Z,75.31
2019-03-15T02:14:45.949Z,75.49
2019-03-15T02:15:45.861Z,75.31
2019-03-15T02:16:45.802Z,75.59
2019-03-15T02:17:45.782Z,75.11
2019-03-15T02:18:45.719Z,75.68
2019-03-15T02:19:45.634Z,75.87
2019-03-15T02:20:45.577Z,77.11
2019-03-15T02:21:45.519Z,75.87
2019-03-15T02:22:45.460Z,76.06
2019-03-15T02:23:45.438Z,75.96
2019-03-15T02:24:45.353Z,75.87
2019-03-15T02:25:45.326Z,77.11
2019-03-15T02:26:45.231Z,75.96
2019-03-15T02:27:45.177Z,75.49
2019-03-15T02:28:45.119Z,76.25
2019-03-15T02:29:45.060Z,76.63
2019-03-15T02:30:45.042Z,76.06
2019-03-15T02:31:44.948Z,76.06
2019-03-15T02:32:44.890Z,75.96
2019-03-15T02:33:44.837Z,75.11
2019-03-15T02:34:44.776Z,75.87
2019-03-15T02:35:44.755Z,75.31
2019-03-15T02:36:44.665Z,75.68
2019-03-15T02:37:44.652Z,75.40
2019-03-15T02:38:44.549Z,75.31
2019-03-15T02:39:46.150Z,75.78
2019-03-15T02:40:44.442Z,75.40
2019-03-15T02:41:44.409Z,75.31
2019-03-15T02:42:44.319Z,75.02
2019-03-15T02:43:44.271Z,75.11
2019-03-15T02:44:44.244Z,74.83
2019-03-15T02:45:44.153Z,75.68
2019-03-15T02:46:44.124Z,76.06
2019-03-15T02:47:44.039Z,75.87
2019-03-15T02:48:43.986Z,75.96
2019-03-15T02:49:43.924Z,77.01
2019-03-15T02:50:43.906Z,76.44
2019-03-15T02:51:43.808Z,77.29
2019-03-15T02:52:43.750Z,77.67
2019-03-15T02:53:43.694Z,77.86
2019-03-15T02:54:43.641Z,78.72
2019-03-15T02:55:43.613Z,78.62
2019-03-15T02:56:43.533Z,78.91
2019-03-15T02:57:43.470Z,78.24
2019-03-15T02:58:43.411Z,82.42
2019-03-15T02:59:43.384Z,81.66
2019-03-15T03:00:43.332Z,82.51
2019-03-15T03:01:43.238Z,81.66
2019-03-15T03:02:43.197Z,81.27
2019-03-15T03:03:43.157Z,80.90
2019-03-15T03:04:43.067Z,80.90
2019-03-15T03:05:43.008Z,80.71
2019-03-15T03:06:42.967Z,80.04
2019-03-15T03:07:42.898Z,79.95
2019-03-15T03:08:42.872Z,79.66
2019-03-15T03:09:42.782Z,77.67
2019-03-15T03:10:42.723Z,78.15
2019-03-15T03:11:42.667Z,78.05
2019-03-15T03:12:43.971Z,78.05
2019-03-15T03:13:42.563Z,79.57
2019-03-15T03:14:42.494Z,79.19
2019-03-15T03:15:42.454Z,78.72
2019-03-15T03:16:42.383Z,77.67
2019-03-15T03:17:42.358Z,77.67
2019-03-15T03:18:42.266Z,77.67
2019-03-15T03:19:42.214Z,77.67
2019-03-15T03:20:42.158Z,78.05
2019-03-15T03:21:42.341Z,77.67
2019-03-15T03:22:42.094Z,77.01
2019-03-15T03:23:41.989Z,77.20
2019-03-15T03:24:41.930Z,77.67
2019-03-15T03:25:41.870Z,77.29
2019-03-15T03:26:41.851Z,77.67
2019-03-15T03:27:41.941Z,77.48
2019-03-15T03:28:41.731Z,76.82
2019-03-15T03:29:41.672Z,77.67
2019-03-15T03:30:41.586Z,77.11
2019-03-15T03:31:43.254Z,76.15
2019-03-15T03:32:44.113Z,76.82
2019-03-15T03:33:42.052Z,76.34
2019-03-15T03:34:41.383Z,76.82
2019-03-15T03:35:41.300Z,76.82
2019-03-15T03:36:41.268Z,77.67
2019-03-15T03:37:41.186Z,77.39
2019-03-15T03:38:41.169Z,76.63
2019-03-15T03:39:41.081Z,77.39
2019-03-15T03:40:41.064Z,77.11
2019-03-15T03:41:40.969Z,77.58
2019-03-15T03:42:40.904Z,77.48
2019-03-15T03:43:40.845Z,78.62
2019-03-15T03:44:40.859Z,79.47
2019-03-15T03:45:40.736Z,79.38
2019-03-15T03:46:40.671Z,80.24
2019-03-15T03:47:40.619Z,80.52
2019-03-15T03:48:40.567Z,80.71
2019-03-15T03:49:40.543Z,80.71
2019-03-15T03:50:40.445Z,80.43
2019-03-15T03:51:40.432Z,79.57
2019-03-15T03:52:41.687Z,79.66
2019-03-15T03:53:40.275Z,79.00
2019-03-15T03:54:40.217Z,79.28
2019-03-15T03:55:40.162Z,80.04
2019-03-15T03:56:40.138Z,80.52
2019-03-15T03:57:40.046Z,81.37
2019-03-15T03:58:39.992Z,81.94
2019-03-15T03:59:39.941Z,81.09
2019-03-15T04:00:39.908Z,81.27
2019-03-15T04:01:39.851Z,81.56
2019-03-15T04:02:39.763Z,81.18
2019-03-15T04:03:39.708Z,80.43
2019-03-15T04:04:39.648Z,79.19
2019-03-15T04:05:39.591Z,80.52
2019-03-15T04:06:39.566Z,80.43
2019-03-15T04:07:39.476Z,81.56
2019-03-15T04:08:39.419Z,81.18
2019-03-15T04:09:39.365Z,81.75
2019-03-15T04:10:39.360Z,81.09
2019-03-15T04:11:39.279Z,81.09
2019-03-15T04:12:39.193Z,79.57
2019-03-15T04:13:39.137Z,81.18
2019-03-15T04:14:39.105Z,79.19
2019-03-15T04:15:39.020Z,77.67
2019-03-15T04:16:38.963Z,79.19
2019-03-15T04:17:38.908Z,78.72
2019-03-15T04:18:38.851Z,77.77
2019-03-15T04:19:38.824Z,78.81
2019-03-15T04:20:38.737Z,77.86
2019-03-15T04:21:38.680Z,78.05
2019-03-15T04:22:38.620Z,78.15
2019-03-15T04:23:38.893Z,77.58
2019-03-15T04:24:38.508Z,76.25
2019-03-15T04:25:40.505Z,78.15
2019-03-15T04:26:38.432Z,77.01
2019-03-15T04:27:38.337Z,79.38
2019-03-15T04:28:38.282Z,79.85
2019-03-15T04:29:38.224Z,79.47
2019-03-15T04:30:38.167Z,78.72
2019-03-15T04:31:38.147Z,77.67
2019-03-15T04:32:38.051Z,77.58
2019-03-15T04:33:37.996Z,78.15
2019-03-15T04:34:37.938Z,77.67
2019-03-15T04:35:37.882Z,77.77
2019-03-15T04:36:37.858Z,78.15
2019-03-15T04:37:37.775Z,77.67
2019-03-15T04:38:37.712Z,77.58
2019-03-15T04:39:37.652Z,77.11
2019-03-15T04:40:37.628Z,78.91
2019-03-15T04:41:37.539Z,77.96
2019-03-15T04:42:37.511Z,77.67
2019-03-15T04:43:37.423Z,78.91
2019-03-15T04:44:37.368Z,77.29
2019-03-15T04:45:37.359Z,77.48
2019-03-15T04:46:37.258Z,77.20
2019-03-15T04:47:37.209Z,78.24
2019-03-15T04:48:37.139Z,77.86
2019-03-15T04:49:37.084Z,77.20
2019-03-15T04:50:37.058Z,79.19
2019-03-15T04:51:36.971Z,79.57
2019-03-15T04:52:36.912Z,79.19
2019-03-15T04:53:36.879Z,78.62
2019-03-15T04:54:36.801Z,77.86
2019-03-15T04:55:36.743Z,78.43
2019-03-15T04:56:36.702Z,77.67
2019-03-15T04:57:36.663Z,77.96
2019-03-15T04:58:36.599Z,76.73
2019-03-15T04:59:36.512Z,80.62
2019-03-15T05:00:36.456Z,80.14
2019-03-15T05:01:36.408Z,80.99
2019-03-15T05:02:36.342Z,79.85
2019-03-15T05:03:36.323Z,79.57
2019-03-15T05:04:36.231Z,81.09
2019-03-15T05:05:36.170Z,80.24
2019-03-15T05:06:36.114Z,79.47
2019-03-15T05:07:36.061Z,79.19
2019-03-15T05:08:36.032Z,79.19
2019-03-15T05:09:35.951Z,78.43
2019-03-15T05:10:35.886Z,78.72
2019-03-15T05:11:35.848Z,78.62
2019-03-15T05:12:35.806Z,77.77
2019-03-15T05:13:35.716Z,77.67
2019-03-15T05:14:35.658Z,76.82
2019-03-15T05:15:35.600Z,76.92
2019-03-15T05:16:35.544Z,77.01
2019-03-15T05:17:35.526Z,77.86
2019-03-15T05:18:35.431Z,78.53
2019-03-15T05:19:35.373Z,78.05
2019-03-15T05:20:35.315Z,78.05
2019-03-15T05:21:35.259Z,77.67
2019-03-15T05:22:35.236Z,77.86
2019-03-15T05:23:35.176Z,78.34
2019-03-15T05:24:35.130Z,78.81
2019-03-15T05:25:35.030Z,78.91
2019-03-15T05:26:34.998Z,78.72
2019-03-15T05:27:34.937Z,77.48
2019-03-15T05:28:34.894Z,77.86
2019-03-15T05:29:34.803Z,77.20
2019-03-15T05:30:34.744Z,77.96
2019-03-15T05:31:34.690Z,79.47
2019-03-15T05:32:34.648Z,79.47
2019-03-15T05:33:34.754Z,79.38
2019-03-15T05:34:34.527Z,78.72
2019-03-15T05:35:34.461Z,78.62
2019-03-15T05:36:34.404Z,79.28
2019-03-15T05:37:34.346Z,79.47
2019-03-15T05:38:35.054Z,80.33
2019-03-15T05:39:34.232Z,79.38
2019-03-15T05:40:34.177Z,79.38
2019-03-15T05:41:34.119Z,79.57
2019-03-15T05:42:34.063Z,80.99
2019-03-15T05:43:34.042Z,84.03
2019-03-15T05:44:33.951Z,83.65
2019-03-15T05:45:33.922Z,83.08
2019-03-15T05:46:33.835Z,82.98
2019-03-15T05:47:33.791Z,81.85
2019-03-15T05:48:33.721Z,81.47
2019-03-15T05:49:33.665Z,81.94
2019-03-15T05:50:33.656Z,81.56
2019-03-15T05:51:33.636Z,81.47
2019-03-15T05:52:33.491Z,82.51
2019-03-15T05:53:33.439Z,82.04
2019-03-15T05:54:33.379Z,82.60
2019-03-15T05:55:33.360Z,81.66
2019-03-15T05:56:33.266Z,81.66
2019-03-15T05:57:33.240Z,82.32
2019-03-15T05:58:33.149Z,82.60
2019-03-15T05:59:33.091Z,81.66
2019-03-15T06:00:33.042Z,82.60
2019-03-15T06:01:33.012Z,81.37
2019-03-15T06:02:32.923Z,83.36
2019-03-15T06:03:32.869Z,83.08
2019-03-15T06:04:32.809Z,82.23
2019-03-15T06:05:32.751Z,81.66
2019-03-15T06:06:32.731Z,81.56
2019-03-15T06:07:32.639Z,83.08
2019-03-15T06:08:32.581Z,83.08
2019-03-15T06:09:32.523Z,84.31
2019-03-15T06:10:32.469Z,83.27
2019-03-15T06:11:32.444Z,85.26
2019-03-15T06:12:32.352Z,86.11
2019-03-15T06:13:32.301Z,87.54
2019-03-15T06:14:32.239Z,86.68
2019-03-15T06:15:32.181Z,86.78
2019-03-15T06:16:32.187Z,87.63
2019-03-15T06:17:32.072Z,86.30
2019-03-15T06:18:32.013Z,85.45
2019-03-15T06:19:31.952Z,85.45
2019-03-15T06:20:31.896Z,85.36
2019-03-15T06:21:31.878Z,85.17
2019-03-15T06:22:31.784Z,86.40
2019-03-15T06:23:31.762Z,85.93
2019-03-15T06:24:31.668Z,85.07
2019-03-15T06:25:31.611Z,84.12
2019-03-15T06:26:31.562Z,83.94
2019-03-15T06:27:31.499Z,83.84
2019-03-15T06:28:31.475Z,83.94
2019-03-15T06:29:32.024Z,83.17
2019-03-15T06:30:31.330Z,84.41
2019-03-15T06:31:31.270Z,86.02
2019-03-15T06:32:31.212Z,85.07
2019-03-15T06:33:31.191Z,83.94
2019-03-15T06:34:31.099Z,85.45
2019-03-15T06:35:31.075Z,85.83
2019-03-15T06:36:30.995Z,86.49
2019-03-15T06:37:30.931Z,86.40
2019-03-15T06:38:33.436Z,85.74
2019-03-15T06:39:30.820Z,85.83
2019-03-15T06:40:30.790Z,84.50
2019-03-15T06:41:30.702Z,84.03
2019-03-15T06:42:30.652Z,84.03
2019-03-15T06:43:30.628Z,84.31
2019-03-15T06:44:30.533Z,84.88
2019-03-15T06:45:31.943Z,84.59
2019-03-15T06:46:30.423Z,84.03
2019-03-15T06:47:30.359Z,82.98
2019-03-15T06:48:30.337Z,82.79
2019-03-15T06:49:30.245Z,83.17
2019-03-15T06:50:30.228Z,83.94
2019-03-15T06:51:30.134Z,85.68
2019-03-15T06:52:30.080Z,83.74
2019-03-15T06:53:30.054Z,86.59
2019-03-15T06:54:29.965Z,86.11
2019-03-15T06:55:29.955Z,85.83
2019-03-15T06:56:29.935Z,85.07
2019-03-15T06:57:29.791Z,83.74
2019-03-15T06:58:29.738Z,83.22
2019-03-15T06:59:29.713Z,83.17
2019-03-15T07:00:29.624Z,85.21
2019-03-15T07:01:29.564Z,85.49
2019-03-15T07:02:29.560Z,85.21
2019-03-15T07:03:29.449Z,85.07
2019-03-15T07:04:29.399Z,82.65
2019-03-15T07:05:29.339Z,81.66
2019-03-15T07:06:29.278Z,81.60
2019-03-15T07:07:29.254Z,81.32
2019-03-15T07:08:29.168Z,79.71
2019-03-15T07:09:30.912Z,81.41
2019-03-15T07:10:29.082Z,80.46
2019-03-15T07:11:28.995Z,79.80
2019-03-15T07:12:28.938Z,80.80
2019-03-15T07:13:28.883Z,81.70
2019-03-15T07:14:28.825Z,78.56
2019-03-15T07:15:28.798Z,77.81
2019-03-15T07:16:28.712Z,78.95
2019-03-15T07:17:28.694Z,79.71
2019-03-15T07:18:28.931Z,79.42
2019-03-15T07:19:30.497Z,79.71
2019-03-15T07:20:28.491Z,79.71
2019-03-15T07:21:28.426Z,77.81
2019-03-15T07:22:28.409Z,78.09
2019-03-15T07:23:28.323Z,79.61
2019-03-15T07:24:28.258Z,78.66
2019-03-15T07:25:28.234Z,76.67
2019-03-15T07:26:28.144Z,76.10
2019-03-15T07:27:28.086Z,79.61
2019-03-15T07:28:28.034Z,79.42
2019-03-15T07:29:28.004Z,78.19
2019-03-15T07:30:27.915Z,77.52
2019-03-15T07:31:27.863Z,77.62
2019-03-15T07:32:27.805Z,77.24
2019-03-15T07:33:27.744Z,75.72
2019-03-15T07:34:27.729Z,76.86
2019-03-15T07:35:27.638Z,77.33
2019-03-15T07:36:27.578Z,79.23
2019-03-15T07:37:27.521Z,77.90
2019-03-15T07:38:27.464Z,76.76
2019-03-15T07:39:27.443Z,81.79
2019-03-15T07:40:27.350Z,81.79
2019-03-15T07:41:27.327Z,81.32
2019-03-15T07:42:27.239Z,80.46
2019-03-15T07:43:27.205Z,78.85
2019-03-15T07:44:27.123Z,77.24
2019-03-15T07:45:27.109Z,75.53
2019-03-15T07:46:27.008Z,78.09
2019-03-15T07:47:27.066Z,78.75
2019-03-15T07:48:27.059Z,77.81
2019-03-15T07:49:26.841Z,76.76
2019-03-15T07:50:26.816Z,75.81
2019-03-15T07:51:26.726Z,76.20
2019-03-15T07:52:26.672Z,81.88
2019-03-15T07:53:26.657Z,80.56
2019-03-15T07:54:37.471Z,78.28
2019-03-15T07:55:26.502Z,78.00
2019-03-15T07:56:28.634Z,76.86
2019-03-15T07:57:26.390Z,76.86
2019-03-15T07:58:26.363Z,77.24
2019-03-15T07:59:27.896Z,76.29
2019-03-15T08:00:26.256Z,75.34
2019-03-15T08:01:26.160Z,74.87
2019-03-15T08:02:26.109Z,75.43
2019-03-15T08:03:26.046Z,74.87
2019-03-15T08:04:25.994Z,74.77
2019-03-15T08:05:25.969Z,77.81
2019-03-15T08:06:34.880Z,78.38
2019-03-15T08:07:35.845Z,75.72
2019-03-15T08:08:25.805Z,76.29
2019-03-15T08:09:25.709Z,79.42
2019-03-15T08:10:25.653Z,79.42
2019-03-15T08:11:25.596Z,79.14
2019-03-15T08:12:25.540Z,78.09
2019-03-15T08:13:25.514Z,79.71
2019-03-15T08:14:25.425Z,82.93
2019-03-15T08:15:25.373Z,83.88
2019-03-15T08:16:25.314Z,86.44
2019-03-15T08:17:25.288Z,81.79
2019-03-15T08:18:25.197Z,84.83
2019-03-15T08:19:25.174Z,83.97
2019-03-15T08:20:25.088Z,84.17
2019-03-15T08:21:25.031Z,82.74
2019-03-15T08:22:24.974Z,81.04
2019-03-15T08:23:24.916Z,81.41
2019-03-15T08:24:24.899Z,81.79
2019-03-15T08:25:24.806Z,82.17
2019-03-15T08:26:24.745Z,81.79
2019-03-15T08:27:24.689Z,81.79
2019-03-15T08:28:24.637Z,81.88
2019-03-15T08:29:24.615Z,81.13
2019-03-15T08:30:24.517Z,80.84
2019-03-15T08:31:24.465Z,83.78
2019-03-15T08:32:24.407Z,83.69
2019-03-15T08:33:24.346Z,83.12
2019-03-15T08:34:24.323Z,82.65
2019-03-15T08:35:24.790Z,83.97
2019-03-15T08:36:24.179Z,82.55
2019-03-15T08:37:24.126Z,80.08
2019-03-15T08:38:24.095Z,83.31
2019-03-15T08:39:24.006Z,83.12
2019-03-15T08:40:25.804Z,81.88
2019-03-15T08:41:23.895Z,81.70
2019-03-15T08:42:23.873Z,80.37
2019-03-15T08:43:23.778Z,78.75
2019-03-15T08:44:23.727Z,78.00
2019-03-15T08:45:23.698Z,77.14
2019-03-15T08:46:23.645Z,80.46
2019-03-15T08:47:23.554Z,78.38
2019-03-15T08:48:23.502Z,76.01
2019-03-15T08:49:23.441Z,75.81
2019-03-15T08:50:24.726Z,75.91
2019-03-15T08:51:23.324Z,76.01
2019-03-15T08:52:23.307Z,76.10
2019-03-15T08:53:23.218Z,75.34
2019-03-15T08:54:23.154Z,74.77
2019-03-15T08:55:23.128Z,73.72
2019-03-15T08:56:23.042Z,73.16
2019-03-15T08:57:22.983Z,73.63
2019-03-15T08:58:22.971Z,72.30
2019-03-15T08:59:22.969Z,71.73
2019-03-15T09:00:22.814Z,71.92
2019-03-15T09:01:23.985Z,71.83
2019-03-15T09:02:22.706Z,72.97
2019-03-15T09:03:27.918Z,72.68
2019-03-15T09:04:22.588Z,72.02
2019-03-15T09:05:22.535Z,72.49
2019-03-15T09:06:22.473Z,71.07
2019-03-15T09:07:22.420Z,71.26
2019-03-15T09:08:22.393Z,70.03
2019-03-15T09:09:22.314Z,70.31
2019-03-15T09:10:23.776Z,70.12
2019-03-15T09:11:22.195Z,69.65
2019-03-15T09:12:22.135Z,69.08
2019-03-15T09:13:22.110Z,69.55
2019-03-15T09:14:22.020Z,69.08
2019-03-15T09:15:21.963Z,69.65
2019-03-15T09:16:21.909Z,68.70
2019-03-15T09:17:21.961Z,69.17
2019-03-15T09:18:21.825Z,68.51
2019-03-15T09:19:21.738Z,69.74
2019-03-15T09:20:21.681Z,69.46
2019-03-15T09:21:21.623Z,69.74
2019-03-15T09:22:21.568Z,68.79
2019-03-15T09:23:21.542Z,67.85
2019-03-15T09:24:21.464Z,68.13
2019-03-15T09:25:21.429Z,67.37
2019-03-15T09:26:21.341Z,66.14
2019-03-15T09:27:21.292Z,67.08
2019-03-15T09:28:21.225Z,65.56
2019-03-15T09:29:21.205Z,65.47
2019-03-15T09:30:24.748Z,64.81
2019-03-15T09:31:21.062Z,65.47
2019-03-15T09:32:21.004Z,65.85
2019-03-15T09:33:20.946Z,64.62
2019-03-15T09:34:20.977Z,63.76
2019-03-15T09:35:20.864Z,64.24
2019-03-15T09:36:20.775Z,64.24
2019-03-15T09:37:20.719Z,62.72
2019-03-15T09:38:20.662Z,62.15
2019-03-15T09:39:20.610Z,61.96
2019-03-15T09:40:20.581Z,61.01
2019-03-15T09:41:30.897Z,61.20
2019-03-15T09:42:20.473Z,61.87
2019-03-15T09:43:20.378Z,62.82
2019-03-15T09:44:20.322Z,62.34
2019-03-15T09:45:20.269Z,62.72
2019-03-15T09:46:20.216Z,62.72
2019-03-15T09:47:20.185Z,61.87
2019-03-15T09:48:20.094Z,60.63
2019-03-15T09:49:20.042Z,60.47
2019-03-15T09:50:30.721Z,61.14
2019-03-15T09:51:19.928Z,59.88
2019-03-15T09:52:19.909Z,60.25
2019-03-15T09:53:19.814Z,60.16
2019-03-15T09:54:19.757Z,60.16
2019-03-15T09:55:32.170Z,59.88
2019-03-15T09:56:19.646Z,59.97
2019-03-15T09:57:19.626Z,58.92
2019-03-15T09:58:19.547Z,58.95
2019-03-15T09:59:19.639Z,58.39
2019-03-15T10:00:19.429Z,58.29
2019-03-15T10:01:34.343Z,57.62
2019-03-15T10:02:29.767Z,57.72
2019-03-15T10:03:22.357Z,57.81
2019-03-15T10:04:19.227Z,56.39
2019-03-15T10:05:19.137Z,56.20
2019-03-15T10:06:19.656Z,55.44
2019-03-15T10:07:19.110Z,55.63
2019-03-15T10:08:19.002Z,56.10
2019-03-15T10:09:18.914Z,55.54
2019-03-15T10:10:19.347Z,55.25
2019-03-15T10:11:18.832Z,55.44
2019-03-15T10:12:18.741Z,55.73
2019-03-15T10:13:18.690Z,55.91
2019-03-15T10:14:18.695Z,56.10
2019-03-15T10:15:18.573Z,56.68
2019-03-15T10:16:18.518Z,55.54
2019-03-15T10:17:18.464Z,55.06
2019-03-15T10:18:18.405Z,54.78
2019-03-15T10:19:18.379Z,54.58
2019-03-15T10:20:18.292Z,54.30
2019-03-15T10:21:18.236Z,53.35
2019-03-15T10:22:18.178Z,53.64
2019-03-15T10:23:18.127Z,54.11
2019-03-15T10:24:18.107Z,54.21
2019-03-15T10:25:18.044Z,54.39
2019-03-15T10:26:17.954Z,53.92
2019-03-15T10:27:17.899Z,53.16
2019-03-15T10:28:17.840Z,52.50
2019-03-15T10:29:19.659Z,52.87
2019-03-15T10:30:17.762Z,53.83
2019-03-15T10:31:17.673Z,52.97
2019-03-15T10:32:17.619Z,53.07
2019-03-15T10:33:17.563Z,53.16
2019-03-15T10:34:17.506Z,53.83
2019-03-15T10:35:17.481Z,53.83
2019-03-15T10:36:17.423Z,54.68
2019-03-15T10:37:17.341Z,54.58
2019-03-15T10:38:17.318Z,54.05
2019-03-15T10:39:17.224Z,53.83
2019-03-15T10:40:17.179Z,53.76
2019-03-15T10:41:17.111Z,54.14
2019-03-15T10:42:17.056Z,54.90
2019-03-15T10:43:17.034Z,54.90
2019-03-15T10:44:16.945Z,53.95
2019-03-15T10:45:16.894Z,54.43
2019-03-15T10:46:16.831Z,54.71
2019-03-15T10:47:16.780Z,53.95
2019-03-15T10:48:25.037Z,53.95
2019-03-15T10:49:16.671Z,53.28
2019-03-15T10:50:16.619Z,54.33
2019-03-15T10:51:16.554Z,54.52
2019-03-15T10:52:16.496Z,55.47
2019-03-15T10:53:16.473Z,54.61
2019-03-15T10:54:16.387Z,55.28
2019-03-15T10:55:16.331Z,54.71
2019-03-15T10:56:16.310Z,55.66
2019-03-15T10:57:16.220Z,56.61
2019-03-15T10:58:16.168Z,56.51
2019-03-15T10:59:16.109Z,56.32
2019-03-15T11:00:16.051Z,55.66
2019-03-15T11:01:16.036Z,56.70
2019-03-15T11:02:15.939Z,58.51
2019-03-15T11:03:15.882Z,57.75
2019-03-15T11:04:15.829Z,57.97
2019-03-15T11:05:15.774Z,59.58
2019-03-15T11:06:15.767Z,60.35
2019-03-15T11:07:15.663Z,61.10
2019-03-15T11:08:15.613Z,60.35
2019-03-15T11:09:15.578Z,62.15
2019-03-15T11:10:15.495Z,61.68
2019-03-15T11:11:15.474Z,61.39
2019-03-15T11:12:15.418Z,59.49
2019-03-15T11:13:15.330Z,62.62
2019-03-15T11:14:15.275Z,63.39
2019-03-15T11:15:15.218Z,62.91
2019-03-15T11:16:15.170Z,60.91
2019-03-15T11:17:15.139Z,60.72
2019-03-15T11:18:15.050Z,60.82
2019-03-15T11:19:15.792Z,60.25
2019-03-15T11:20:14.945Z,58.44
2019-03-15T11:21:14.887Z,58.44
2019-03-15T11:22:14.832Z,58.54
2019-03-15T11:23:14.784Z,59.58
2019-03-15T11:24:14.776Z,61.58
2019-03-15T11:25:14.667Z,61.01
2019-03-15T11:26:14.607Z,60.63
2019-03-15T11:27:14.557Z,61.29
2019-03-15T11:28:14.498Z,60.44
2019-03-15T11:29:14.485Z,60.38
2019-03-15T11:30:14.396Z,61.71
2019-03-15T11:31:14.329Z,63.13
2019-03-15T11:32:14.275Z,63.89
2019-03-15T11:33:14.221Z,62.56
2019-03-15T11:34:14.249Z,62.85
2019-03-15T11:35:14.114Z,60.85
2019-03-15T11:36:14.057Z,61.61
2019-03-15T11:37:14.001Z,64.75
2019-03-15T11:38:13.946Z,64.65
2019-03-15T11:39:13.925Z,63.79
2019-03-15T11:40:14.525Z,63.04
2019-03-15T11:41:13.787Z,63.89
2019-03-15T11:42:14.981Z,63.79
2019-03-15T11:43:13.709Z,62.46
2019-03-15T11:44:13.623Z,61.42
2019-03-15T11:45:13.564Z,61.99
2019-03-15T11:46:16.393Z,61.71
2019-03-15T11:47:13.533Z,62.94
2019-03-15T11:48:13.403Z,61.99
2019-03-15T11:49:13.342Z,62.46
2019-03-15T11:50:13.286Z,62.08
2019-03-15T11:51:13.231Z,61.80
2019-03-15T11:52:13.211Z,60.38
2019-03-15T11:53:13.124Z,58.95
2019-03-15T11:54:13.067Z,58.95
2019-03-15T11:55:13.014Z,60.09
2019-03-15T11:56:26.183Z,61.13
2019-03-15T11:57:12.903Z,60.18
2019-03-15T11:58:12.882Z,59.99
2019-03-15T11:59:12.797Z,59.71
2019-03-15T12:00:12.765Z,59.33
2019-03-15T12:01:12.727Z,58.85
2019-03-15T12:02:12.632Z,57.62
2019-03-15T12:03:12.585Z,58.47
2019-03-15T12:04:12.529Z,57.90
2019-03-15T12:05:12.499Z,59.42
2019-03-15T12:06:12.412Z,61.61
2019-03-15T12:07:12.356Z,60.18
2019-03-15T12:08:12.340Z,59.23
2019-03-15T12:09:12.250Z,59.52
2019-03-15T12:10:12.194Z,58.47
2019-03-15T12:11:12.167Z,58.95
2019-03-15T12:12:12.087Z,57.90
2019-03-15T12:13:12.031Z,57.24
2019-03-15T12:14:11.975Z,57.04
2019-03-15T12:15:11.959Z,57.04
2019-03-15T12:16:11.866Z,56.95
2019-03-15T12:17:11.813Z,56.95
2019-03-15T12:18:11.758Z,57.65
2019-03-15T12:19:11.700Z,57.26
2019-03-15T12:20:11.679Z,57.26
2019-03-15T12:21:11.596Z,56.51
2019-03-15T12:22:11.537Z,56.88
2019-03-15T12:23:11.516Z,57.93
2019-03-15T12:24:11.435Z,60.50
2019-03-15T12:25:11.408Z,57.36
2019-03-15T12:26:11.324Z,58.22
2019-03-15T12:27:11.265Z,57.74
2019-03-15T12:28:11.211Z,58.12
2019-03-15T12:29:11.157Z,58.03
2019-03-15T12:30:11.137Z,58.03
2019-03-15T12:31:11.049Z,58.88
2019-03-15T12:32:10.994Z,58.79
2019-03-15T12:33:10.942Z,58.50
2019-03-15T12:34:10.925Z,60.50
2019-03-15T12:35:10.836Z,60.97
2019-03-15T12:36:10.780Z,58.59
2019-03-15T12:37:10.725Z,58.12
2019-03-15T12:38:10.669Z,59.45
2019-03-15T12:39:10.649Z,59.27
2019-03-15T12:40:10.567Z,58.31
2019-03-15T12:41:10.547Z,56.51
2019-03-15T12:42:10.453Z,57.17
2019-03-15T12:43:10.399Z,60.41
2019-03-15T12:44:10.718Z,61.55
2019-03-15T12:45:10.297Z,60.41
2019-03-15T12:46:10.269Z,59.45
2019-03-15T12:47:10.182Z,59.07
2019-03-15T12:48:10.159Z,60.50
2019-03-15T12:49:10.076Z,59.17
2019-03-15T12:50:10.092Z,58.50
2019-03-15T12:51:10.046Z,59.55
2019-03-15T12:52:09.913Z,58.03